Time;durP1;ratioP1;P1;durP2;ratioP2;P2;SDS_P1;SDS_P2;PMS_P1;PMS_P2;Temp;Humidity;BMP_temperature;BMP_pressure;BME280_temperature;BME280_humidity;BME280_pressure;Samples;Min_cycle;Max_cycle;Signal;HPM_P1;HPM_P2
2023/06/11 00:00:04;;;;;;;19.85;11.68;;;;;;;20.58;100.00;101131.53;5011591;28;20112;-75
2023/06/11 00:02:33;;;;;;;18.45;11.52;;;;;;;20.53;100.00;101132.19;5025207;28;20081;-72
2023/06/11 00:05:03;;;;;;;26.23;11.27;;;;;;;20.54;100.00;101135.78;5009753;28;20096;-73
2023/06/11 00:07:30;;;;;;;17.45;10.98;;;;;;;20.50;100.00;101135.97;5018275;28;20057;-73
2023/06/11 00:09:57;;;;;;;23.83;11.27;;;;;;;20.46;100.00;101141.03;5008651;28;20463;-74
2023/06/11 00:12:23;;;;;;;20.15;11.75;;;;;;;20.42;100.00;101142.44;5010143;28;20065;-73
2023/06/11 00:14:53;;;;;;;16.17;10.27;;;;;;;20.34;100.00;101136.34;5010626;28;20579;-74
2023/06/11 00:17:19;;;;;;;20.20;11.25;;;;;;;20.31;100.00;101139.31;5017554;28;20827;-72
2023/06/11 00:19:47;;;;;;;19.85;11.07;;;;;;;20.29;100.00;101142.63;5013304;28;20057;-74
2023/06/11 00:22:14;;;;;;;24.33;11.65;;;;;;;20.25;100.00;101146.88;5009602;28;20065;-75
2023/06/11 00:24:41;;;;;;;20.55;12.18;;;;;;;20.22;100.00;101142.16;5013658;28;20050;-74
2023/06/11 00:27:07;;;;;;;16.95;10.82;;;;;;;20.21;100.00;101141.34;5015507;28;20128;-76
2023/06/11 00:29:34;;;;;;;23.45;11.85;;;;;;;20.17;100.00;101146.38;5017340;28;20132;-76
2023/06/11 00:32:00;;;;;;;21.00;11.07;;;;;;;20.14;100.00;101146.53;5011262;28;20054;-73
2023/06/11 00:34:27;;;;;;;21.45;10.95;;;;;;;20.14;100.00;101144.50;5009851;28;20081;-73
2023/06/11 00:36:54;;;;;;;21.90;12.35;;;;;;;20.12;100.00;101138.56;5009074;28;20073;-74
2023/06/11 00:39:20;;;;;;;17.77;11.27;;;;;;;20.07;100.00;101135.56;5025712;28;20519;-74
2023/06/11 00:41:48;;;;;;;22.55;10.80;;;;;;;20.08;100.00;101140.75;5011590;28;20045;-72
2023/06/11 00:44:18;;;;;;;27.90;12.82;;;;;;;20.02;100.00;101133.41;5010352;28;20058;-72
2023/06/11 00:46:45;;;;;;;18.88;10.93;;;;;;;19.98;100.00;101138.44;5006759;28;20076;-75
2023/06/11 00:49:12;;;;;;;18.33;11.15;;;;;;;19.97;100.00;101136.84;5016870;28;20062;-73
2023/06/11 00:51:44;;;;;;;19.17;11.38;;;;;;;19.90;100.00;101137.94;5015530;28;20053;-76
2023/06/11 00:54:12;;;;;;;17.98;11.65;;;;;;;19.86;100.00;101140.16;5016129;28;20476;-76
2023/06/11 00:56:41;;;;;;;19.45;11.48;;;;;;;19.86;100.00;101137.34;5008453;28;20045;-74
2023/06/11 00:59:08;;;;;;;17.73;11.35;;;;;;;19.80;100.00;101133.56;5013827;28;20075;-73
2023/06/11 01:01:41;;;;;;;19.17;11.85;;;;;;;19.72;100.00;101138.75;5007153;28;20042;-73
2023/06/11 01:04:17;;;;;;;18.13;11.82;;;;;;;19.68;100.00;101145.81;5017649;28;20408;-74
2023/06/11 01:06:49;;;;;;;18.48;11.48;;;;;;;19.62;100.00;101130.75;5006601;28;20049;-74
2023/06/11 01:09:22;;;;;;;20.33;12.15;;;;;;;19.61;100.00;101138.44;5009569;28;20054;-73
2023/06/11 01:11:54;;;;;;;21.55;11.57;;;;;;;19.58;100.00;101142.19;5013919;28;20061;-74
2023/06/11 01:14:21;;;;;;;19.25;11.65;;;;;;;19.54;100.00;101137.94;5010036;28;20133;-72
2023/06/11 01:16:53;;;;;;;20.75;12.23;;;;;;;19.47;100.00;101139.03;5008341;28;20139;-73
2023/06/11 01:19:37;;;;;;;19.40;10.82;;;;;;;19.44;100.00;101131.50;5007164;28;20057;-75
2023/06/11 01:22:13;;;;;;;20.25;11.85;;;;;;;19.44;100.00;101131.50;5008655;28;20132;-74
2023/06/11 01:24:45;;;;;;;19.08;12.25;;;;;;;19.44;100.00;101128.69;5014884;28;20050;-77
2023/06/11 01:27:37;;;;;;;20.58;12.68;;;;;;;19.43;100.00;101129.94;5008389;28;20096;-73
2023/06/11 01:30:04;;;;;;;22.15;11.88;;;;;;;19.37;100.00;101128.19;5014490;28;20053;-76
2023/06/11 01:32:31;;;;;;;19.42;12.20;;;;;;;19.38;100.00;101139.00;5012590;28;20075;-74
2023/06/11 01:35:00;;;;;;;20.23;11.90;;;;;;;19.34;100.00;101137.63;5016143;28;20543;-73
2023/06/11 01:37:29;;;;;;;19.10;12.43;;;;;;;19.28;100.00;101142.31;5009515;28;20056;-74
2023/06/11 01:39:56;;;;;;;22.58;12.25;;;;;;;19.23;100.00;101152.16;5016322;28;20523;-75
2023/06/11 01:42:22;;;;;;;22.02;13.35;;;;;;;19.20;100.00;101143.81;5008233;28;20445;-72
2023/06/11 01:44:49;;;;;;;19.90;12.88;;;;;;;19.18;100.00;101141.47;5016520;28;20468;-73
2023/06/11 01:47:15;;;;;;;19.17;12.30;;;;;;;19.13;100.00;101144.94;5015529;28;20057;-76
2023/06/11 01:49:42;;;;;;;19.70;12.35;;;;;;;19.06;100.00;101147.25;5020969;28;20050;-74
2023/06/11 01:52:09;;;;;;;19.88;12.55;;;;;;;19.00;100.00;101149.91;5008040;28;20506;-78
2023/06/11 01:54:35;;;;;;;24.17;13.18;;;;;;;18.95;100.00;101149.72;5006477;28;20500;-74
2023/06/11 01:57:02;;;;;;;21.85;12.13;;;;;;;18.93;100.00;101149.38;5008419;28;20057;-72
2023/06/11 01:59:28;;;;;;;20.33;12.20;;;;;;;18.87;100.00;101152.03;5010098;28;20085;-75
2023/06/11 02:01:56;;;;;;;21.17;14.65;;;;;;;18.86;100.00;101153.28;5011516;28;20459;-74
2023/06/11 02:04:22;;;;;;;22.60;13.18;;;;;;;18.83;100.00;101148.59;5005461;28;20440;-72
2023/06/11 02:06:50;;;;;;;21.38;13.68;;;;;;;18.85;100.00;101153.75;5021398;28;20041;-72
2023/06/11 02:09:17;;;;;;;22.42;13.27;;;;;;;18.80;100.00;101151.56;5026562;28;20053;-73
2023/06/11 02:11:43;;;;;;;22.90;13.25;;;;;;;18.80;100.00;101151.56;5008068;28;20140;-75
2023/06/11 02:14:10;;;;;;;23.30;13.02;;;;;;;18.76;100.00;101157.31;5007749;28;20060;-78
2023/06/11 02:16:42;;;;;;;20.65;12.65;;;;;;;18.73;100.00;101157.47;5009037;28;20135;-75
2023/06/11 02:19:09;;;;;;;23.25;12.73;;;;;;;18.73;100.00;101155.44;5017489;28;20046;-75
2023/06/11 02:21:36;;;;;;;19.92;12.40;;;;;;;18.71;100.00;101159.94;5002403;28;20835;-72
2023/06/11 02:24:03;;;;;;;22.08;12.55;;;;;;;18.67;100.00;101154.44;5019904;28;20103;-72
2023/06/11 02:26:29;;;;;;;19.80;13.23;;;;;;;18.69;100.00;101157.56;5016475;28;20543;-74
2023/06/11 02:28:56;;;;;;;22.50;13.57;;;;;;;18.68;100.00;101163.69;5017291;28;20057;-73
2023/06/11 02:31:22;;;;;;;21.50;13.23;;;;;;;18.61;100.00;101159.13;5007947;28;20401;-71
2023/06/11 02:33:52;;;;;;;20.33;12.88;;;;;;;18.65;100.00;101165.38;5007099;28;20050;-75
2023/06/11 02:36:18;;;;;;;20.52;13.43;;;;;;;18.63;100.00;101159.41;5015139;28;20100;-74
2023/06/11 02:38:45;;;;;;;19.33;13.23;;;;;;;18.60;100.00;101154.72;5006887;28;20712;-74
2023/06/11 02:41:12;;;;;;;22.20;13.70;;;;;;;18.62;100.00;101165.50;5006886;28;20469;-74
2023/06/11 02:43:38;;;;;;;21.90;12.93;;;;;;;18.58;100.00;101159.25;5007816;28;20077;-74
2023/06/11 02:46:05;;;;;;;23.95;13.10;;;;;;;18.50;100.00;101157.97;5004031;28;20148;-74
2023/06/11 02:48:31;;;;;;;21.88;13.75;;;;;;;18.51;100.00;101153.91;5013572;28;20057;-72
2023/06/11 02:50:58;;;;;;;22.48;12.80;;;;;;;18.49;100.00;101159.97;5007416;28;20077;-72
2023/06/11 02:53:24;;;;;;;24.23;13.95;;;;;;;18.46;100.00;101155.28;5006841;28;20551;-78
2023/06/11 02:55:51;;;;;;;19.25;12.88;;;;;;;18.46;100.00;101152.44;5005057;28;20088;-73
2023/06/11 02:58:17;;;;;;;21.95;14.05;;;;;;;18.45;100.00;101164.97;5015441;28;20081;-73
2023/06/11 03:00:44;;;;;;;22.70;14.07;;;;;;;18.38;100.00;101156.81;5010256;28;20582;-73
2023/06/11 03:03:11;;;;;;;21.13;13.73;;;;;;;18.34;100.00;101158.19;5018644;28;20049;-73
2023/06/11 03:05:38;;;;;;;22.50;13.88;;;;;;;18.31;100.00;101159.91;5010321;28;20042;-73
2023/06/11 03:08:04;;;;;;;23.52;13.15;;;;;;;18.25;100.00;101161.72;5011041;28;20050;-73
2023/06/11 03:10:31;;;;;;;22.17;13.27;;;;;;;18.25;100.00;101163.75;5010708;28;20049;-72
2023/06/11 03:12:57;;;;;;;20.27;13.70;;;;;;;18.20;100.00;101164.34;5010995;28;20056;-75
2023/06/11 03:15:26;;;;;;;21.63;14.25;;;;;;;18.17;100.00;101165.25;5008797;28;20593;-73
2023/06/11 03:17:53;;;;;;;24.90;15.00;;;;;;;18.15;100.00;101159.28;5012484;28;20579;-73
2023/06/11 03:20:19;;;;;;;21.20;13.95;;;;;;;18.16;100.00;101160.88;5019330;28;20515;-73
2023/06/11 03:22:46;;;;;;;21.95;13.82;;;;;;;18.16;100.00;101158.06;5017708;28;20108;-72
2023/06/11 03:25:12;;;;;;;22.83;15.30;;;;;;;18.14;100.00;101160.56;5009889;28;20131;-74
2023/06/11 03:27:39;;;;;;;21.67;13.40;;;;;;;18.16;100.00;101164.47;5009044;28;20131;-73
2023/06/11 03:30:06;;;;;;;20.17;13.02;;;;;;;18.15;100.00;101167.75;5015049;28;20500;-73
2023/06/11 03:32:33;;;;;;;23.52;14.30;;;;;;;18.18;100.00;101166.81;5016803;28;20088;-73
2023/06/11 03:35:00;;;;;;;21.33;13.00;;;;;;;18.15;100.00;101164.94;5010482;28;20058;-72
2023/06/11 03:37:26;;;;;;;21.30;13.52;;;;;;;18.08;100.00;101157.53;5010214;28;20626;-73
2023/06/11 03:39:53;;;;;;;21.13;13.32;;;;;;;18.10;100.00;101165.53;5009271;28;20089;-76
2023/06/11 03:42:19;;;;;;;20.52;12.93;;;;;;;18.06;100.00;101171.28;5017150;28;20107;-72
2023/06/11 03:44:46;;;;;;;21.42;12.63;;;;;;;18.05;100.00;101175.34;5010921;28;20081;-73
2023/06/11 03:47:12;;;;;;;20.77;12.63;;;;;;;18.04;100.00;101170.16;5010295;28;20855;-73
2023/06/11 03:49:39;;;;;;;19.90;13.05;;;;;;;18.02;100.00;101173.44;5017705;28;20050;-75
2023/06/11 03:52:07;;;;;;;20.50;12.75;;;;;;;17.97;100.00;101173.25;5010267;28;20544;-73
2023/06/11 03:54:33;;;;;;;19.75;12.55;;;;;;;17.95;100.00;101165.25;5014699;28;20077;-72
2023/06/11 03:57:00;;;;;;;19.05;12.07;;;;;;;17.97;100.00;101167.63;5009876;28;20042;-73
2023/06/11 03:59:26;;;;;;;22.63;13.07;;;;;;;17.99;100.00;101174.34;5007989;28;20058;-77
2023/06/11 04:01:59;;;;;;;19.70;12.80;;;;;;;17.94;100.00;101171.34;5018319;28;20088;-71
2023/06/11 04:04:25;;;;;;;18.75;12.02;;;;;;;17.92;100.00;101176.63;5026418;28;20534;-77
2023/06/11 04:06:52;;;;;;;21.30;12.80;;;;;;;17.93;100.00;101173.38;5009836;28;20045;-73
2023/06/11 04:09:19;;;;;;;19.63;12.27;;;;;;;17.96;100.00;101172.44;5009227;28;20528;-73
2023/06/11 04:11:45;;;;;;;21.48;12.65;;;;;;;17.89;100.00;101164.25;5022264;28;20725;-73
2023/06/11 04:14:12;;;;;;;23.70;12.20;;;;;;;17.95;100.00;101176.50;5017249;28;20490;-74
2023/06/11 04:16:38;;;;;;;24.88;12.27;;;;;;;17.97;100.00;101176.84;5031712;28;20046;-74
2023/06/11 04:19:05;;;;;;;18.50;11.93;;;;;;;17.96;100.00;101178.06;5016909;28;20065;-73
2023/06/11 04:21:31;;;;;;;19.70;12.60;;;;;;;17.95;100.00;101181.38;5009781;28;20054;-71
2023/06/11 04:23:58;;;;;;;20.02;12.70;;;;;;;17.95;100.00;101187.75;5011323;28;20157;-74
2023/06/11 04:26:25;;;;;;;20.40;12.30;;;;;;;17.97;100.00;101181.69;5017773;28;20100;-74
2023/06/11 04:28:52;;;;;;;19.20;12.13;;;;;;;17.97;100.00;101185.28;5008267;28;20506;-72
2023/06/11 04:31:19;;;;;;;18.08;11.18;;;;;;;17.99;100.00;101182.78;5010081;28;20060;-72
2023/06/11 04:33:47;;;;;;;17.73;11.80;;;;;;;18.00;100.00;101178.75;5018314;28;20087;-71
2023/06/11 04:36:14;;;;;;;18.75;12.15;;;;;;;17.98;100.00;101181.22;5012953;28;20058;-72
2023/06/11 04:38:44;;;;;;;19.33;11.68;;;;;;;17.99;100.00;101187.66;5024384;28;20049;-72
2023/06/11 04:41:12;;;;;;;19.35;12.35;;;;;;;18.00;100.00;101186.41;5027387;28;20052;-70
2023/06/11 04:43:40;;;;;;;18.20;11.77;;;;;;;18.05;100.00;101183.78;5006761;28;20494;-74
2023/06/11 04:46:06;;;;;;;19.02;11.65;;;;;;;18.10;100.00;101182.41;5017142;28;20049;-72
2023/06/11 04:48:33;;;;;;;19.55;12.35;;;;;;;18.16;100.00;101177.78;5012426;28;20057;-73
2023/06/11 04:51:00;;;;;;;17.27;11.00;;;;;;;18.19;100.00;101179.69;5013317;28;20107;-73
2023/06/11 04:53:29;;;;;;;18.25;11.25;;;;;;;18.23;100.00;101188.75;5016075;28;20797;-75
2023/06/11 04:55:58;;;;;;;20.88;12.65;;;;;;;18.28;100.00;101182.53;5009061;28;20068;-73
2023/06/11 04:58:30;;;;;;;18.20;11.30;;;;;;;18.35;100.00;101187.88;5007949;28;20463;-73
2023/06/11 05:00:57;;;;;;;19.25;11.50;;;;;;;18.40;100.00;101178.88;5010289;28;20080;-72
2023/06/11 05:03:26;;;;;;;18.05;11.77;;;;;;;18.41;100.00;101177.59;5025221;28;20054;-74
2023/06/11 05:05:55;;;;;;;21.70;12.45;;;;;;;18.50;100.00;101184.06;5008880;28;20050;-72
2023/06/11 05:08:28;;;;;;;17.50;11.82;;;;;;;18.54;100.00;101184.75;5018205;28;20045;-73
2023/06/11 05:11:03;;;;;;;21.98;12.18;;;;;;;18.61;100.00;101190.09;5010884;28;20042;-79
2023/06/11 05:13:30;;;;;;;18.83;11.55;;;;;;;18.68;100.00;101187.00;5011779;28;20389;-73
2023/06/11 05:15:58;;;;;;;20.02;11.75;;;;;;;18.75;100.00;101188.78;5017580;28;20511;-75
2023/06/11 05:18:26;;;;;;;19.38;11.48;;;;;;;18.85;100.00;101188.34;5007254;28;20054;-73
2023/06/11 05:20:53;;;;;;;17.40;11.38;;;;;;;18.90;100.00;101193.38;5011737;28;20049;-75
2023/06/11 05:23:27;;;;;;;19.58;11.70;;;;;;;18.96;100.00;101197.16;5007771;28;20089;-76
2023/06/11 05:25:58;;;;;;;18.58;11.15;;;;;;;19.03;100.00;101196.06;5011671;28;20054;-73
2023/06/11 05:28:26;;;;;;;20.90;11.57;;;;;;;19.06;100.00;101193.13;5009611;28;20085;-74
2023/06/11 05:30:53;;;;;;;19.05;10.70;;;;;;;19.12;100.00;101190.47;5008337;28;20416;-73
2023/06/11 05:33:20;;;;;;;17.30;10.85;;;;;;;19.18;100.00;101194.25;5004910;28;20453;-72
2023/06/11 05:35:47;;;;;;;19.90;11.55;;;;;;;19.24;100.00;101192.41;5007121;28;20113;-74
2023/06/11 05:38:13;;;;;;;18.55;11.18;;;;;;;19.30;100.00;101196.16;5007861;28;20046;-74
2023/06/11 05:40:40;;;;;;;19.15;11.23;;;;;;;19.38;100.00;101195.41;5012148;28;20042;-77
2023/06/11 05:43:07;;;;;;;18.00;10.52;;;;;;;19.45;100.00;101202.78;5017202;28;20057;-73
2023/06/11 05:45:34;;;;;;;23.00;11.77;;;;;;;19.50;100.00;101205.00;5016336;28;20117;-74
2023/06/11 05:48:00;;;;;;;18.08;10.90;;;;;;;19.54;100.00;101202.81;5001786;28;20077;-75
2023/06/11 05:50:27;;;;;;;18.65;11.15;;;;;;;19.60;100.00;101209.41;5005424;28;20054;-73
2023/06/11 05:52:54;;;;;;;18.08;10.45;;;;;;;19.67;100.00;101206.28;5007358;28;20508;-73
2023/06/11 05:55:21;;;;;;;16.77;10.15;;;;;;;19.75;100.00;101199.09;5015028;28;20831;-75
2023/06/11 05:57:47;;;;;;;16.77;10.40;;;;;;;19.83;100.00;101210.84;5007688;28;20548;-73
2023/06/11 06:00:14;;;;;;;17.15;10.90;;;;;;;19.91;100.00;101210.06;5015340;28;20103;-74
2023/06/11 06:02:41;;;;;;;19.00;10.57;;;;;;;20.02;100.00;101213.22;5010907;28;20077;-71
2023/06/11 06:05:08;;;;;;;18.23;11.13;;;;;;;20.10;100.00;101214.44;5010688;28;20050;-73
2023/06/11 06:07:35;;;;;;;19.15;10.50;;;;;;;20.18;100.00;101215.69;5010246;28;20041;-76
2023/06/11 06:10:03;;;;;;;22.42;10.63;;;;;;;20.23;100.00;101206.63;5012803;28;20084;-72
2023/06/11 06:12:29;;;;;;;18.73;11.18;;;;;;;20.34;100.00;101214.59;5012240;28;20058;-74
2023/06/11 06:14:56;;;;;;;17.52;10.43;;;;;;;20.44;100.00;101218.97;5012496;28;20107;-75
2023/06/11 06:17:22;;;;;;;16.73;10.07;;;;;;;20.49;100.00;101219.13;5017744;28;20073;-72
2023/06/11 06:19:49;;;;;;;17.40;10.75;;;;;;;20.60;100.00;101221.47;5011045;28;20179;-76
2023/06/11 06:22:18;;;;;;;15.65;10.27;;;;;;;20.69;100.00;101222.22;5007071;28;20057;-74
2023/06/11 06:24:44;;;;;;;16.02;9.93;;;;;;;20.74;100.00;101217.97;5007259;28;20141;-73
2023/06/11 06:27:11;;;;;;;14.75;9.77;;;;;;;20.81;100.00;101224.06;5013943;28;20070;-75
2023/06/11 06:29:40;;;;;;;15.95;10.07;;;;;;;20.87;100.00;101219.34;5006184;28;20107;-74
2023/06/11 06:32:07;;;;;;;17.27;9.48;;;;;;;20.96;100.00;101230.63;5013040;28;20049;-74
2023/06/11 06:34:35;;;;;;;16.73;10.02;;;;;;;21.04;100.00;101223.38;5019510;28;21925;-75
2023/06/11 06:37:04;;;;;;;16.35;9.10;;;;;;;21.14;100.00;101230.56;5010928;28;20053;-71
2023/06/11 06:39:31;;;;;;;15.65;9.50;;;;;;;21.23;100.00;101212.78;5015919;28;20589;-72
2023/06/11 06:41:57;;;;;;;16.67;10.50;;;;;;;21.29;100.00;101220.13;5025394;28;20059;-71
2023/06/11 06:44:24;;;;;;;17.20;9.75;;;;;;;21.37;100.00;101220.56;5023902;28;20081;-75
2023/06/11 06:46:53;;;;;;;15.48;9.43;;;;;;;21.48;100.00;101223.63;5020632;28;20046;-72
2023/06/11 06:49:21;;;;;;;16.27;9.77;;;;;;;21.56;100.00;101227.66;5025189;28;20053;-71
2023/06/11 06:51:47;;;;;;;16.70;9.55;;;;;;;21.62;100.00;101231.38;5030225;28;20045;-71
2023/06/11 06:54:15;;;;;;;16.38;9.90;;;;;;;21.70;100.00;101233.41;5014302;28;20671;-73
2023/06/11 06:56:41;;;;;;;15.68;9.75;;;;;;;21.76;100.00;101228.66;5027076;28;20127;-70
2023/06/11 06:59:08;;;;;;;17.08;9.25;;;;;;;21.87;100.00;101237.38;5016722;28;20139;-70
2023/06/11 07:01:34;;;;;;;14.95;9.05;;;;;;;21.97;100.00;101230.38;5006951;28;20057;-72
2023/06/11 07:04:01;;;;;;;16.55;10.00;;;;;;;22.06;100.00;101224.63;5008254;28;20061;-69
2023/06/11 07:06:27;;;;;;;16.95;9.55;;;;;;;22.10;100.00;101224.44;5009703;28;20141;-73
2023/06/11 07:08:54;;;;;;;16.77;9.85;;;;;;;22.18;100.00;101232.06;5010329;28;20777;-72
2023/06/11 07:11:21;;;;;;;16.67;9.77;;;;;;;22.23;100.00;101235.47;5018602;28;20115;-73
2023/06/11 07:13:48;;;;;;;15.65;9.60;;;;;;;22.32;100.00;101239.06;5011535;28;20539;-73
2023/06/11 07:16:15;;;;;;;16.15;10.00;;;;;;;22.39;100.00;101229.41;5007999;28;20058;-71
2023/06/11 07:18:42;;;;;;;15.38;9.27;;;;;;;22.47;100.00;101247.59;5017690;28;20048;-73
2023/06/11 07:21:09;;;;;;;15.75;9.55;;;;;;;22.50;100.00;101236.03;5006735;28;20111;-73
2023/06/11 07:23:36;;;;;;;16.45;10.23;;;;;;;22.57;100.00;101243.38;5011846;28;20130;-71
2023/06/11 07:26:03;;;;;;;15.98;9.93;;;;;;;22.65;100.00;101236.06;5030242;28;20530;-70
2023/06/11 07:28:29;;;;;;;16.63;9.32;;;;;;;22.73;100.00;101242.88;5009948;28;20096;-72
2023/06/11 07:30:56;;;;;;;16.25;10.10;;;;;;;22.82;100.00;101239.97;5024894;28;20456;-73
2023/06/11 07:33:23;;;;;;;18.63;10.38;;;;;;;22.92;100.00;101239.34;5026721;28;20056;-74
2023/06/11 07:35:49;;;;;;;20.88;10.45;;;;;;;23.00;100.00;101237.72;5020158;28;20131;-75
2023/06/11 07:38:17;;;;;;;15.90;9.25;;;;;;;23.08;100.00;101255.13;5020095;28;20064;-73
2023/06/11 07:40:44;;;;;;;18.20;10.25;;;;;;;23.13;100.00;101245.91;5017968;28;20832;-73
2023/06/11 07:43:10;;;;;;;17.65;9.88;;;;;;;23.22;100.00;101237.28;5011385;28;20127;-72
2023/06/11 07:45:37;;;;;;;16.83;9.55;;;;;;;23.24;100.00;101246.06;5007989;28;20038;-70
2023/06/11 07:48:04;;;;;;;17.25;9.55;;;;;;;23.33;100.00;101248.81;5029813;28;20104;-74
2023/06/11 07:50:30;;;;;;;18.73;9.77;;;;;;;23.42;100.00;101238.09;5010259;28;20058;-72
2023/06/11 07:52:57;;;;;;;17.13;10.05;;;;;;;23.52;100.00;101244.44;5016287;28;20600;-72
2023/06/11 07:55:24;;;;;;;14.13;9.35;;;;;;;23.54;100.00;101239.84;5010219;28;20846;-72
2023/06/11 07:57:50;;;;;;;15.52;9.73;;;;;;;23.71;100.00;101242.91;5015909;28;20030;-72
2023/06/11 08:00:17;;;;;;;15.20;9.65;;;;;;;23.84;100.00;101241.31;5017335;28;20067;-73
2023/06/11 08:02:44;;;;;;;18.38;9.82;;;;;;;23.88;100.00;101243.91;5014417;28;20076;-73
2023/06/11 08:05:17;;;;;;;14.73;9.27;;;;;;;24.00;100.00;101243.53;5013331;28;20046;-73
2023/06/11 08:07:45;;;;;;;16.25;9.48;;;;;;;24.08;100.00;101238.22;5011579;28;20733;-72
2023/06/11 08:10:11;;;;;;;18.27;9.85;;;;;;;24.16;100.00;101245.00;5007982;28;20123;-71
2023/06/11 08:12:38;;;;;;;16.95;9.25;;;;;;;24.25;100.00;101237.16;5007722;28;20054;-75
2023/06/11 08:15:05;;;;;;;15.45;9.35;;;;;;;24.36;100.00;101245.00;5011114;28;20100;-75
2023/06/11 08:17:32;;;;;;;18.58;8.70;;;;;;;24.46;100.00;101243.56;5013102;28;20087;-73
2023/06/11 08:20:00;;;;;;;17.30;10.18;;;;;;;24.52;100.00;101241.56;5020703;28;20289;-75
2023/06/11 08:22:26;;;;;;;15.07;9.10;;;;;;;24.61;100.00;101247.09;5012881;28;20153;-77
2023/06/11 08:24:53;;;;;;;15.68;9.13;;;;;;;24.71;100.00;101237.09;5033429;28;20079;-76
2023/06/11 08:27:19;;;;;;;15.40;8.85;;;;;;;24.82;100.00;101237.19;5019449;28;20137;-76
2023/06/11 08:29:46;;;;;;;15.35;9.25;;;;;;;24.91;100.00;101236.25;5016343;28;20089;-76
2023/06/11 08:32:12;;;;;;;16.25;9.15;;;;;;;25.01;100.00;101235.56;5008491;28;20073;-76
2023/06/11 08:34:39;;;;;;;16.90;9.10;;;;;;;25.07;100.00;101230.69;5016864;28;20062;-76
2023/06/11 08:37:06;;;;;;;14.73;8.60;;;;;;;25.17;100.00;101228.47;5028152;28;20045;-77
2023/06/11 08:39:32;;;;;;;15.25;8.95;;;;;;;25.29;100.00;101230.88;5009208;28;20069;-78
2023/06/11 08:41:59;;;;;;;14.00;8.63;;;;;;;25.46;100.00;101226.09;5015791;28;20058;-78
2023/06/11 08:44:26;;;;;;;14.82;8.40;;;;;;;25.63;100.00;101226.94;5011412;28;20100;-76
2023/06/11 08:46:55;;;;;;;18.33;7.93;;;;;;;25.75;100.00;101233.47;5013491;28;20070;-74
2023/06/11 08:49:22;;;;;;;14.05;8.07;;;;;;;25.73;100.00;101228.28;5015796;28;20518;-74
2023/06/11 08:51:50;;;;;;;15.70;7.88;;;;;;;25.81;100.00;101229.34;5008439;28;20100;-74
2023/06/11 08:54:17;;;;;;;12.13;6.55;;;;;;;25.93;100.00;101213.09;5007664;28;20128;-73
2023/06/11 08:56:44;;;;;;;12.50;6.65;;;;;;;26.01;98.96;101217.00;5015234;28;20120;-74
2023/06/11 08:59:11;;;;;;;13.23;6.70;;;;;;;26.15;97.45;101213.19;5010595;28;20050;-73
2023/06/11 09:01:39;;;;;;;12.50;7.03;;;;;;;26.33;100.00;101218.41;5006006;28;20132;-73
2023/06/11 09:04:06;;;;;;;11.32;6.32;;;;;;;26.43;96.23;101220.50;5016749;28;20053;-73
2023/06/11 09:06:34;;;;;;;11.07;5.93;;;;;;;26.57;95.91;101218.72;5007692;28;20045;-73
2023/06/11 09:09:05;;;;;;;13.85;6.10;;;;;;;26.70;91.75;101210.47;5015046;28;20050;-74
2023/06/11 09:11:38;;;;;;;10.07;5.38;;;;;;;26.71;90.01;101214.84;5018160;28;20057;-75
2023/06/11 09:14:05;;;;;;;8.40;3.85;;;;;;;26.56;84.57;101220.00;5016500;28;20756;-74
2023/06/11 09:16:41;;;;;;;10.82;5.78;;;;;;;26.69;84.39;101215.38;5022234;28;20045;-74
2023/06/11 09:19:12;;;;;;;11.95;5.55;;;;;;;26.80;87.09;101213.81;5004785;28;20049;-75
2023/06/11 09:21:48;;;;;;;11.93;6.00;;;;;;;26.84;85.57;101215.13;5001940;28;20045;-73
2023/06/11 09:24:14;;;;;;;11.00;5.68;;;;;;;26.95;85.03;101211.47;5011194;28;20053;-73
2023/06/11 09:26:54;;;;;;;8.55;4.70;;;;;;;26.89;84.24;101211.47;5012143;28;20107;-72
2023/06/11 09:29:22;;;;;;;9.45;4.72;;;;;;;26.82;80.91;101211.25;5019660;28;20053;-71
2023/06/11 09:31:49;;;;;;;9.90;5.72;;;;;;;26.93;81.59;101212.00;5004757;28;20045;-71
2023/06/11 09:34:23;;;;;;;10.65;5.53;;;;;;;27.05;81.69;101209.91;5008322;28;20052;-74
2023/06/11 09:36:51;;;;;;;13.60;6.18;;;;;;;27.25;81.04;101213.28;5004014;28;20133;-71
2023/06/11 09:39:19;;;;;;;12.60;6.05;;;;;;;27.24;78.31;101216.66;5017077;28;20068;-71
2023/06/11 09:41:47;;;;;;;10.82;5.65;;;;;;;27.25;80.95;101207.59;5014189;28;20050;-71
2023/06/11 09:44:16;;;;;;;11.18;5.82;;;;;;;27.32;81.35;101200.53;5006891;28;20081;-71
2023/06/11 09:46:43;;;;;;;8.40;4.88;;;;;;;27.26;78.73;101203.41;5005660;28;20647;-72
2023/06/11 09:49:11;;;;;;;7.60;4.28;;;;;;;27.35;78.64;101216.63;5032672;28;20054;-70
2023/06/11 09:51:39;;;;;;;9.30;5.43;;;;;;;27.27;78.23;101219.22;5003177;28;20073;-70
2023/06/11 09:54:07;;;;;;;10.75;5.75;;;;;;;27.40;77.97;101210.91;5007614;28;20160;-69
2023/06/11 09:56:37;;;;;;;12.52;6.10;;;;;;;27.55;77.95;101204.91;5007786;28;20100;-73
2023/06/11 09:59:05;;;;;;;11.75;5.70;;;;;;;27.67;79.77;101203.56;4996655;28;20073;-70
2023/06/11 10:01:33;;;;;;;7.45;4.63;;;;;;;27.84;76.80;101216.50;5006635;28;20108;-69
2023/06/11 10:04:00;;;;;;;11.15;5.68;;;;;;;27.92;76.90;101214.66;5012078;28;20058;-70
2023/06/11 10:06:32;;;;;;;12.25;5.85;;;;;;;27.98;76.38;101206.06;5011736;28;20618;-73
2023/06/11 10:09:03;;;;;;;9.25;5.72;;;;;;;28.17;75.53;101204.09;5016846;28;20193;-72
2023/06/11 10:11:38;;;;;;;11.05;6.05;;;;;;;28.19;73.67;101212.94;5005861;28;20475;-73
2023/06/11 10:14:11;;;;;;;;;;;;;;;28.19;71.49;101216.59;5010743;28;20563;-74
2023/06/11 10:16:38;;;;;;;10.35;5.53;;;;;;;28.26;74.30;101213.19;5027779;28;20466;-77
2023/06/11 10:19:08;;;;;;;8.77;5.55;;;;;;;28.21;67.11;101221.78;5004875;28;20050;-73
2023/06/11 10:21:44;;;;;;;10.75;5.53;;;;;;;28.41;69.34;101225.03;5007233;28;20145;-74
2023/06/11 10:24:24;;;;;;;11.02;6.10;;;;;;;28.53;62.79;101208.59;5016282;28;20593;-76
2023/06/11 10:27:05;;;;;;;11.90;6.30;;;;;;;28.67;65.67;101213.94;5002834;28;20054;-76
2023/06/11 10:29:48;;;;;;;11.05;6.05;;;;;;;28.85;63.49;101209.63;5005443;28;20888;-76
2023/06/11 10:32:16;;;;;;;10.65;5.88;;;;;;;28.84;62.19;101214.59;5006223;28;20046;-72
2023/06/11 10:34:43;;;;;;;12.85;6.32;;;;;;;28.86;62.42;101208.34;5015050;28;20044;-74
2023/06/11 10:37:11;;;;;;;11.52;5.93;;;;;;;28.89;62.06;101213.00;5005939;28;20061;-75
2023/06/11 10:39:50;;;;;;;13.48;7.00;;;;;;;28.78;60.40;101210.97;5017867;28;20130;-76
2023/06/11 10:42:24;;;;;;;14.68;6.85;;;;;;;28.87;63.18;101201.31;5003689;28;20148;-74
2023/06/11 10:44:55;;;;;;;8.60;5.30;;;;;;;29.10;61.27;101216.19;5012119;28;20137;-74
2023/06/11 10:47:22;;;;;;;11.90;6.40;;;;;;;29.18;60.99;101202.81;5026983;28;20046;-74
2023/06/11 10:49:49;;;;;;;10.63;6.50;;;;;;;29.30;61.11;101215.72;5013430;28;20048;-74
2023/06/11 10:52:16;;;;;;;11.07;5.32;;;;;;;29.33;58.77;101211.81;5016178;28;20077;-72
2023/06/11 10:54:45;;;;;;;13.32;6.65;;;;;;;29.46;60.44;101206.97;5015578;28;20164;-74
2023/06/11 10:57:13;;;;;;;12.93;6.90;;;;;;;29.51;58.32;101200.41;5005570;28;20065;-75
2023/06/11 10:59:41;;;;;;;10.48;6.18;;;;;;;29.61;59.01;101195.09;4997536;28;20492;-72
2023/06/11 11:02:13;;;;;;;12.60;6.30;;;;;;;29.70;57.62;101201.22;5010766;28;20042;-74
2023/06/11 11:04:53;;;;;;;13.43;6.53;;;;;;;29.77;55.24;101200.63;5006980;28;20159;-73
2023/06/11 11:07:19;;;;;;;11.32;6.38;;;;;;;29.64;57.06;101205.47;5008931;28;20053;-73
2023/06/11 11:09:46;;;;;;;14.48;6.38;;;;;;;29.41;54.85;101204.16;5008044;28;20555;-73